Latest Weather Observations for Goulburn Airport

IDN60901

Issued at 10:31 am EST Monday 16 September 2019 (issued every 10 minutes, with the page automatically refreshed every 10 minutes)

About weather observations | Map of Canberra area stations | Latest observations for Canberra area | Other Formats
Station Details ID: 070330 Name: GOULBURN AIRPORT AWS Lat: -34.81 Lon: 149.73 Height: 640.0 m
Data from the previous 72 hours. | See also: Recent months at Goulburn Airport
Date/Time
EST
Temp
°C
App
Temp
°C
Dew
Point
°C
Rel
Hum
%
Delta-T
°C
Wind Press
QNH
hPa
Press
MSL
hPa
Rain since
9am
mm
Dir  Spd
km/h
Gust
km/h
Spd
kts
Gust
kts
16/10:30am 22.1 12.2 -7.6 13 11.9 WNW 37 52 20 28 1016.1 1016.1 0.0
16/10:22am 22.5 12.6 -8.3 12 12.2 WNW 37 56 20 30 1016.2 1016.2 0.0
16/10:00am 21.9 11.1 -9.9 11 12.2 WNW 41 57 22 31 1016.4 1016.4 0.0
16/09:30am 22.9 12.6 -8.0 12 12.4 WNW 39 57 21 31 1016.6 1016.5 0.0
16/09:24am 22.0 11.6 -9.8 11 12.2 WNW 39 57 21 31 1016.6 1016.5 0.0
16/09:00am 21.6 12.5 -9.0 12 11.9 NW 32 43 17 23 1016.1 1016.1 0.0
16/08:30am 20.6 13.1 -8.7 13 11.3 NW 24 43 13 23 1016.1 1016.1 0.0
16/08:00am 18.9 11.7 -9.1 14 10.5 NNW 22 33 12 18 1015.9 1015.9 0.0
16/07:30am 17.4 10.2 -9.5 15 9.9 NNW 22 30 12 16 1015.9 1015.9 0.0
16/07:00am 15.3 8.5 -8.8 18 8.8 NNW 20 26 11 14 1015.9 1015.9 0.0
16/06:30am 13.0 7.1 -9.4 20 7.8 NNW 15 20 8 11 1016.0 1016.0 0.0
16/06:00am 12.7 6.5 -9.0 21 7.6 NNW 17 20 9 11 1016.0 1016.0 0.0
16/05:30am 12.6 6.5 -8.0 23 7.4 NNW 17 20 9 11 1015.8 1015.8 0.0
16/05:00am 9.2 4.6 -4.4 38 5.1 N 11 15 6 8 1015.9 1015.9 0.0
16/04:30am 6.5 4.0 -4.0 47 3.8 CALM 0 0 0 0 1016.1 1016.1 0.0
16/04:00am 7.2 4.7 -4.2 44 4.2 CALM 0 0 0 0 1016.3 1016.3 0.0
16/03:30am 7.8 3.1 -5.3 39 4.7 WNW 11 11 6 6 1016.7 1016.6 0.0
16/03:00am 10.6 5.1 -5.4 32 5.9 NW 15 15 8 8 1016.9 1016.9 0.0
16/02:30am 9.3 4.8 -3.6 40 4.9 NNW 11 11 6 6 1017.1 1017.1 0.0
16/02:00am 6.9 3.2 -2.8 50 3.7 NNW 7 9 4 5 1017.5 1017.5 0.0
16/01:30am 9.8 5.1 -5.3 34 5.6 NNW 11 13 6 7 1018.1 1018.1 0.0
16/01:00am 10.5 5.1 -4.7 34 5.7 N 15 15 8 8 1018.5 1018.5 0.0
16/12:30am 10.3 6.1 -4.1 36 5.5 NNW 9 9 5 5 1018.9 1018.9 0.0
16/12:00am 9.4 5.7 -3.2 41 4.8 NW 7 9 4 5 1019.0 1019.0 0.0
 
Date/Time
EST
Temp
°C
App
Temp
°C
Dew
Point
°C
Rel
Hum
%
Delta-T
°C
Wind Press
QNH
hPa
Press
MSL
hPa
Rain since
9am
mm
Dir  Spd
km/h
Gust
km/h
Spd
kts
Gust
kts
15/11:30pm 9.6 5.2 -2.3 43 4.7 WNW 11 15 6 8 1019.4 1019.4 0.0
15/11:00pm 8.2 3.5 -1.9 49 4.0 WNW 13 15 7 8 1019.6 1019.7 0.0
15/10:30pm 10.2 5.8 -2.4 41 5.0 WNW 11 15 6 8 1019.9 1019.9 0.0
15/10:00pm 11.4 6.6 -2.4 38 5.5 NNW 13 15 7 8 1020.0 1020.0 0.0
15/09:30pm 11.7 7.2 -2.9 36 5.8 NNW 11 11 6 6 1020.2 1020.2 0.0
15/09:00pm 10.2 5.5 -2.1 42 4.9 NW 13 15 7 8 1020.5 1020.5 0.0
15/08:30pm 13.7 8.1 -2.7 32 6.7 NW 17 17 9 9 1020.6 1020.6 0.0
15/08:00pm 13.6 8.4 -2.8 32 6.7 NW 15 17 8 9 1020.8 1020.8 0.0
15/07:30pm 13.8 8.7 -2.2 33 6.6 NW 15 17 8 9 1021.0 1021.1 0.0
15/07:00pm 14.9 9.4 -2.1 31 7.1 NW 17 17 9 9 1020.9 1021.0 0.0
15/06:30pm 16.0 10.8 -2.5 28 7.8 NW 15 19 8 10 1020.5 1020.5 0.0
15/06:00pm 17.4 11.8 -2.8 25 8.5 NW 17 20 9 11 1020.3 1020.3 0.0
15/05:30pm 19.2 13.3 -2.4 23 9.4 NW 19 26 10 14 1020.1 1020.1 0.0
15/05:00pm 19.7 13.0 -3.9 20 9.9 WNW 22 30 12 16 1020.1 1020.1 0.0
15/04:30pm 18.8 12.4 -4.6 20 9.7 WNW 20 26 11 14 1020.3 1020.3 0.0
15/04:00pm 21.1 12.6 -6.5 15 11.2 WNW 30 39 16 21 1020.2 1020.2 0.0
15/03:30pm 21.6 12.0 -9.0 12 11.9 WNW 35 46 19 25 1020.3 1020.3 0.0
15/03:00pm 21.8 12.4 -6.8 14 11.6 WNW 35 43 19 23 1020.5 1020.5 0.0
15/02:30pm 22.2 12.8 -6.5 14 11.8 W 35 44 19 24 1020.7 1020.7 0.0
15/02:00pm 22.8 14.4 -6.1 14 12.0 WNW 30 39 16 21 1020.7 1020.7 0.0
15/01:30pm 22.8 13.9 -7.0 13 12.2 W 32 46 17 25 1020.9 1021.0 0.0
15/01:00pm 22.2 13.4 -6.5 14 11.7 WNW 32 41 17 22 1021.2 1021.3 0.0
15/12:48pm 22.9 14.7 -4.2 16 11.7 WNW 30 48 16 26 1021.3 1021.4 0.0
15/12:30pm 21.8 13.9 -4.3 17 11.1 WNW 28 37 15 20 1021.8 1021.8 0.0
15/12:00pm 20.9 12.6 -5.0 17 10.8 WNW 30 39 16 21 1022.3 1022.4 0.0
15/11:30am 20.9 13.4 -8.5 13 11.5 WNW 24 32 13 17 1022.7 1022.8 0.0
15/11:00am 19.7 12.4 -6.8 16 10.5 WNW 24 33 13 18 1023.1 1023.2 0.0
15/10:30am 18.4 10.6 -7.8 16 10.1 W 26 33 14 18 1023.3 1023.3 0.0
15/10:00am 18.1 12.3 -4.5 21 9.2 W 17 24 9 13 1023.6 1023.7 0.0
15/09:30am 17.3 11.6 -4.0 23 8.8 WNW 17 24 9 13 1023.9 1024.0 0.0
15/09:00am 16.8 11.1 -3.9 24 8.5 WNW 17 26 9 14 1023.9 1024.0 0.0
15/08:30am 14.5 9.5 -1.2 34 6.7 NW 15 19 8 10 1023.9 1024.0 0.0
15/08:00am 11.7 7.8 1.4 49 4.5 N 11 15 6 8 1023.7 1023.8 0.0
15/07:30am 9.7 5.5 1.4 56 3.6 NNW 13 20 7 11 1023.7 1023.8 0.0
15/07:00am 7.1 3.8 2.2 71 2.1 NNE 9 13 5 7 1023.7 1023.8 0.0
15/06:30am 2.8 -1.7 -0.3 80 1.2 N 13 15 7 8 1023.5 1023.5 0.0
15/06:00am 2.3 -2.6 -0.4 82 1.0 N 15 17 8 9 1023.4 1023.4 0.0
15/05:30am 2.4 -1.4 -1.0 78 1.3 N 9 15 5 8 1023.1 1023.2 0.0
15/05:00am 0.9 -2.6 -1.3 85 0.8 N 7 9 4 5 1022.9 1023.0 0.0
15/04:30am -0.3 -4.7 -2.5 85 0.8 N 11 13 6 7 1022.6 1022.7 0.0
15/04:00am 0.7 -2.8 -2.7 78 1.2 N 6 11 3 6 1022.7 1022.8 0.0
15/03:30am 0.8 -2.8 -2.1 81 1.1 NNE 7 7 4 4 1022.6 1022.7 0.0
15/03:00am 0.7 -3.3 -2.5 79 1.2 N 9 9 5 5 1022.5 1022.6 0.0
15/02:30am 1.6 -1.4 -1.8 78 1.2 NNE 4 6 2 3 1022.8 1022.9 0.0
15/02:00am 1.3 -2.1 -2.1 78 1.2 NNE 6 7 3 4 1023.1 1023.2 0.0
15/01:30am 1.1 -2.6 -2.8 75 1.4 N 7 9 4 5 1023.4 1023.4 0.0
15/01:00am 2.6 -1.0 -2.3 70 1.8 NNE 7 7 4 4 1023.8 1023.9 0.0
15/12:30am 3.1 -0.4 -1.6 71 1.8 N 7 9 4 5 1023.7 1023.8 0.0
15/12:00am 2.0 -1.7 -3.3 68 1.9 W 7 9 4 5 1023.8 1023.9 0.0
 
Date/Time
EST
Temp
°C
App
Temp
°C
Dew
Point
°C
Rel
Hum
%
Delta-T
°C
Wind Press
QNH
hPa
Press
MSL
hPa
Rain since
9am
mm
Dir  Spd
km/h
Gust
km/h
Spd
kts
Gust
kts
14/11:30pm 3.5 0.1 -1.8 68 2.0 S 6 7 3 4 1024.1 1024.2 0.0
14/11:00pm 3.2 1.0 -1.5 71 1.7 CALM 0 0 0 0 1023.9 1024.0 0.0
14/10:30pm 2.7 0.0 -2.6 68 1.9 WNW 2 7 1 4 1023.9 1024.0 0.0
14/10:00pm 4.3 2.0 -2.3 62 2.4 CALM 0 0 0 0 1023.9 1024.0 0.0
14/09:30pm 5.0 2.6 -3.0 56 2.9 CALM 0 0 0 0 1024.1 1024.2 0.0
14/09:00pm 7.3 3.3 -2.2 51 3.6 NNW 9 11 5 6 1023.7 1023.8 0.0
14/08:30pm 8.7 3.9 -2.3 46 4.3 WNW 13 15 7 8 1024.0 1024.1 0.0
14/08:00pm 10.8 8.0 -3.7 36 5.6 W 2 7 1 4 1024.0 1024.1 0.0
14/07:30pm 12.9 6.9 -3.4 32 6.5 WNW 19 30 10 16 1023.4 1023.4 0.0
14/07:00pm 10.3 6.6 -4.5 35 5.6 W 6 11 3 6 1023.1 1023.2 0.0
14/06:30pm 12.9 9.7 -3.8 31 6.6 NNE 4 9 2 5 1022.6 1022.7 0.0
14/06:00pm 14.5 8.2 -3.8 28 7.3 WNW 20 28 11 15 1022.2 1022.3 0.0
14/05:30pm 16.0 9.3 -4.0 25 8.1 WNW 22 30 12 16 1022.1 1022.1 0.0
14/05:00pm 17.4 9.6 -3.9 23 8.8 WNW 28 35 15 19 1021.8 1021.8 0.0
14/04:30pm 18.4 10.7 -3.1 23 9.1 WNW 28 35 15 19 1021.6 1021.6 0.0
14/04:00pm 19.1 11.2 -4.4 20 9.7 WNW 28 35 15 19 1021.6 1021.6 0.0
14/03:30pm 19.5 12.0 -4.7 19 10.0 WNW 26 33 14 18 1021.6 1021.6 0.0
14/03:00pm 20.0 12.6 -3.6 20 10.0 WNW 26 35 14 19 1021.8 1021.8 0.0
14/02:30pm 19.7 12.8 -2.6 22 9.7 WNW 24 35 13 19 1021.8 1021.8 0.0
14/02:00pm 19.6 12.3 -2.7 22 9.6 WNW 26 35 14 19 1021.9 1021.9 0.0
14/01:30pm 19.4 14.0 -1.7 24 9.3 WNW 17 26 9 14 1022.2 1022.3 0.0
14/01:00pm 19.5 13.6 -0.5 26 9.0 WNW 20 35 11 19 1022.4 1022.5 0.0
14/12:30pm 18.6 12.9 -0.7 27 8.6 WNW 19 30 10 16 1022.7 1022.8 0.0
14/12:00pm 17.6 12.2 -1.6 27 8.3 NNW 17 28 9 15 1023.0 1023.1 0.0
14/11:30am 17.3 13.7 0.5 32 7.6 N 9 20 5 11 1023.3 1023.3 0.0
14/11:00am 16.3 12.5 -0.8 31 7.4 WNW 9 20 5 11 1023.7 1023.8 0.0
14/10:30am 15.4 11.7 0.0 35 6.8 NW 9 17 5 9 1023.8 1023.9 0.0
14/10:00am 14.8 11.2 0.3 37 6.4 NW 9 17 5 9 1024.0 1024.1 0.0
14/09:30am 14.5 10.4 2.1 43 5.7 W 13 20 7 11 1024.2 1024.3 0.0
14/09:00am 13.4 8.2 2.6 48 4.9 W 19 26 10 14 1024.2 1024.3 0.0
14/08:30am 12.3 7.5 2.7 52 4.4 W 17 26 9 14 1024.2 1024.3 0.0
14/08:00am 10.9 6.4 2.2 55 3.8 W 15 24 8 13 1023.8 1023.9 0.0
14/07:30am 8.7 6.3 2.3 64 2.8 N 4 7 2 4 1023.5 1023.5 0.0
14/07:00am 6.3 3.4 1.6 72 2.0 NNW 6 9 3 5 1023.3 1023.3 0.0
14/06:30am 3.4 0.2 -0.2 77 1.4 E 6 9 3 5 1023.0 1023.1 0.0
14/06:00am 4.1 1.3 -0.7 71 1.8 W 4 11 2 6 1022.8 1022.9 0.0
14/05:30am 4.4 2.3 -1.0 68 2.1 CALM 0 2 0 1 1022.6 1022.7 0.0
14/05:00am 6.7 3.0 0.2 63 2.6 W 9 17 5 9 1022.0 1022.0 0.0
14/04:30am 7.6 0.7 0.1 59 3.1 WNW 26 35 14 19 1021.3 1021.4 0.0
14/04:00am 7.2 1.0 -0.3 59 3.0 WNW 22 28 12 15 1021.3 1021.4 0.0
14/03:30am 7.3 1.3 -1.4 54 3.4 WNW 20 26 11 14 1021.2 1021.3 0.0
14/03:00am 7.4 1.3 -2.1 51 3.7 WNW 20 24 11 13 1021.2 1021.3 0.0
14/02:30am 7.7 1.6 -2.6 48 4.0 WNW 20 28 11 15 1021.6 1021.6 0.0
14/02:00am 8.5 2.0 -2.1 47 4.1 WNW 22 30 12 16 1021.4 1021.5 0.0
14/01:30am 10.4 2.0 -1.3 44 4.8 WNW 33 41 18 22 1021.4 1021.5 0.0
14/01:00am 9.8 1.7 -0.1 50 4.1 WNW 32 35 17 19 1021.4 1021.5 0.0
14/12:30am 10.0 1.3 -0.5 48 4.3 WNW 35 41 19 22 1021.6 1021.6 0.0
14/12:00am 10.2 2.0 -1.2 45 4.6 WNW 32 39 17 21 1021.6 1021.6 0.0
 
Date/Time
EST
Temp
°C
App
Temp
°C
Dew
Point
°C
Rel
Hum
%
Delta-T
°C
Wind Press
QNH
hPa
Press
MSL
hPa
Rain since
9am
mm
Dir  Spd
km/h
Gust
km/h
Spd
kts
Gust
kts
13/11:30pm 10.2 4.2 -1.8 43 4.8 WNW 20 28 11 15 1022.0 1022.0 0.0
13/11:00pm 9.7 3.9 -1.3 46 4.4 WNW 19 24 10 13 1022.3 1022.4 0.0
13/10:30pm 11.0 5.2 -0.2 46 4.7 WNW 20 26 11 14 1022.5 1022.6 0.0
13/10:00pm 11.9 6.1 0.1 44 5.0 W 20 28 11 15 1022.5 1022.6 0.0
13/09:30pm 12.7 8.0 0.8 44 5.2 NW 15 22 8 12 1022.3 1022.4 0.0
13/09:00pm 13.1 8.0 0.5 42 5.5 NW 17 26 9 14 1022.0 1022.0 0.0
13/08:30pm 13.9 6.5 -0.9 36 6.3 W 28 41 15 22 1022.0 1022.0 0.0
13/08:00pm 14.2 6.1 -0.6 36 6.3 WNW 32 44 17 24 1021.6 1021.6 0.0
13/07:30pm 14.7 8.8 -1.0 34 6.7 WNW 20 33 11 18 1021.7 1021.7 0.0
13/07:00pm 14.4 9.4 -1.2 34 6.6 WNW 15 28 8 15 1021.8 1021.8 0.0
13/06:30pm 14.7 8.7 -1.8 32 6.9 WNW 20 30 11 16 1021.7 1021.7 0.0
13/06:00pm 15.2 9.1 -3.6 27 7.6 WNW 19 26 10 14 1021.6 1021.6 0.0
13/05:30pm 16.2 8.9 -6.1 21 8.7 WNW 24 33 13 18 1021.8 1021.8 0.0
13/05:00pm 17.7 9.7 -5.5 20 9.3 WNW 28 39 15 21 1021.4 1021.5 0.0
13/04:30pm 18.4 10.0 -6.3 18 9.8 WNW 30 39 16 21 1021.1 1021.2 0.0
13/04:00pm 19.1 11.0 -6.5 17 10.2 WNW 28 35 15 19 1020.7 1020.7 0.0
13/03:30pm 19.6 10.7 -7.7 15 10.7 WNW 32 43 17 23 1020.6 1020.6 0.0
13/03:00pm 19.7 10.8 -5.3 18 10.2 WNW 33 46 18 25 1020.8 1020.8 0.0
13/02:30pm 21.0 12.9 -6.6 15 11.2 WNW 28 41 15 22 1020.9 1021.0 0.0
13/02:00pm 20.6 13.6 -6.9 15 11.0 WNW 22 30 12 16 1021.0 1021.1 0.0
13/01:30pm 20.2 14.6 -6.4 16 10.7 WNW 15 24 8 13 1021.4 1021.5 0.0
13/01:00pm 19.4 12.8 -14.2 9 11.5 NW 17 26 9 14 1021.8 1021.8 0.0
13/12:30pm 19.2 15.0 -7.2 16 10.4 NNW 7 17 4 9 1022.2 1022.3 0.0
13/12:00pm 19.0 16.3 -5.8 18 10.0 CALM 0 6 0 3 1022.6 1022.7 0.0
13/11:30am 17.3 14.1 -7.2 18 9.4 SW 2 13 1 7 1023.0 1023.1 0.0
13/11:00am 16.5 12.5 -5.3 22 8.6 SSE 7 15 4 8 1023.6 1023.7 0.0

Latest Capital City Observations: Canberra | Sydney | Melbourne | Brisbane | Adelaide | Perth | Hobart | Darwin

Other formats

Comma delimited format used in spreadsheet applications
http://www.bom.gov.au/fwo/IDN60903/IDN60903.95716.axf

JavaScript Object Notation format (JSON) in row-major order
http://www.bom.gov.au/fwo/IDN60903/IDN60903.95716.json

Data quality

Most of these data are generated automatically and are frequently updated. Quality checks on data are not normally performed. It is possible for incorrect values to appear. Refer to information at About Latest Weather Observations and please check the disclaimer before using these data.